sensor_id;sensor_type;location;lat;lon;timestamp;temperature;humidity
36450;DHT22;22475;51.390;7.180;2024-02-04T00:02:21;14.00;93.80
36450;DHT22;22475;51.390;7.180;2024-02-04T00:04:52;14.00;93.80
36450;DHT22;22475;51.390;7.180;2024-02-04T00:07:18;14.00;93.90
36450;DHT22;22475;51.390;7.180;2024-02-04T00:09:45;13.90;93.80
36450;DHT22;22475;51.390;7.180;2024-02-04T00:12:12;13.90;93.90
36450;DHT22;22475;51.390;7.180;2024-02-04T00:14:39;13.90;93.90
36450;DHT22;22475;51.390;7.180;2024-02-04T00:17:05;14.00;93.90
36450;DHT22;22475;51.390;7.180;2024-02-04T00:19:32;14.00;93.80
36450;DHT22;22475;51.390;7.180;2024-02-04T00:22:00;14.00;93.80
36450;DHT22;22475;51.390;7.180;2024-02-04T00:24:27;14.00;93.90
36450;DHT22;22475;51.390;7.180;2024-02-04T00:26:54;14.00;93.90
36450;DHT22;22475;51.390;7.180;2024-02-04T00:29:20;14.00;93.80
36450;DHT22;22475;51.390;7.180;2024-02-04T00:31:47;14.00;93.70
36450;DHT22;22475;51.390;7.180;2024-02-04T00:34:15;14.00;93.60
36450;DHT22;22475;51.390;7.180;2024-02-04T00:36:42;14.00;93.70
36450;DHT22;22475;51.390;7.180;2024-02-04T00:39:10;13.90;93.70
36450;DHT22;22475;51.390;7.180;2024-02-04T00:41:37;14.00;93.70
36450;DHT22;22475;51.390;7.180;2024-02-04T00:44:03;14.00;93.60
36450;DHT22;22475;51.390;7.180;2024-02-04T00:46:30;14.00;93.90
36450;DHT22;22475;51.390;7.180;2024-02-04T00:48:57;14.00;93.60
36450;DHT22;22475;51.390;7.180;2024-02-04T00:51:24;14.00;93.70
36450;DHT22;22475;51.390;7.180;2024-02-04T00:53:50;14.00;93.60
36450;DHT22;22475;51.390;7.180;2024-02-04T00:56:19;14.00;93.60
36450;DHT22;22475;51.390;7.180;2024-02-04T00:58:46;14.00;93.70
36450;DHT22;22475;51.390;7.180;2024-02-04T01:01:13;14.10;93.60
36450;DHT22;22475;51.390;7.180;2024-02-04T01:03:39;14.00;93.60
36450;DHT22;22475;51.390;7.180;2024-02-04T01:06:06;14.00;93.60
36450;DHT22;22475;51.390;7.180;2024-02-04T01:08:33;14.00;93.60
36450;DHT22;22475;51.390;7.180;2024-02-04T01:11:03;14.00;93.60
36450;DHT22;22475;51.390;7.180;2024-02-04T01:13:31;14.00;93.70
36450;DHT22;22475;51.390;7.180;2024-02-04T01:15:58;14.00;94.00
36450;DHT22;22475;51.390;7.180;2024-02-04T01:18:25;14.00;93.60
36450;DHT22;22475;51.390;7.180;2024-02-04T01:20:52;14.00;93.70
36450;DHT22;22475;51.390;7.180;2024-02-04T01:23:18;14.00;93.70
36450;DHT22;22475;51.390;7.180;2024-02-04T01:25:45;14.00;94.00
36450;DHT22;22475;51.390;7.180;2024-02-04T01:28:12;14.00;93.50
36450;DHT22;22475;51.390;7.180;2024-02-04T01:30:40;14.10;93.50
36450;DHT22;22475;51.390;7.180;2024-02-04T01:33:07;14.10;93.50
36450;DHT22;22475;51.390;7.180;2024-02-04T01:35:33;14.00;93.60
36450;DHT22;22475;51.390;7.180;2024-02-04T01:38:00;14.00;93.60
36450;DHT22;22475;51.390;7.180;2024-02-04T01:40:27;13.90;93.70
36450;DHT22;22475;51.390;7.180;2024-02-04T01:42:53;13.90;93.90
36450;DHT22;22475;51.390;7.180;2024-02-04T01:45:21;14.00;93.80
36450;DHT22;22475;51.390;7.180;2024-02-04T01:47:49;14.00;93.70
36450;DHT22;22475;51.390;7.180;2024-02-04T01:50:16;14.00;93.90
36450;DHT22;22475;51.390;7.180;2024-02-04T01:52:44;14.00;93.80
36450;DHT22;22475;51.390;7.180;2024-02-04T01:55:11;14.00;93.60
36450;DHT22;22475;51.390;7.180;2024-02-04T01:57:38;14.00;93.70
36450;DHT22;22475;51.390;7.180;2024-02-04T02:00:07;14.00;93.80
36450;DHT22;22475;51.390;7.180;2024-02-04T02:02:39;13.90;93.80
36450;DHT22;22475;51.390;7.180;2024-02-04T02:05:08;13.90;93.90
36450;DHT22;22475;51.390;7.180;2024-02-04T02:07:34;13.90;94.00
36450;DHT22;22475;51.390;7.180;2024-02-04T02:10:01;13.90;94.00
36450;DHT22;22475;51.390;7.180;2024-02-04T02:12:35;13.90;94.10
36450;DHT22;22475;51.390;7.180;2024-02-04T02:15:10;14.00;93.90
36450;DHT22;22475;51.390;7.180;2024-02-04T02:17:44;13.90;93.90
36450;DHT22;22475;51.390;7.180;2024-02-04T02:20:20;13.90;94.10
36450;DHT22;22475;51.390;7.180;2024-02-04T02:22:49;13.90;94.10
36450;DHT22;22475;51.390;7.180;2024-02-04T02:25:20;13.90;94.20
36450;DHT22;22475;51.390;7.180;2024-02-04T02:27:48;13.90;94.20
36450;DHT22;22475;51.390;7.180;2024-02-04T02:30:15;14.00;94.00
36450;DHT22;22475;51.390;7.180;2024-02-04T02:32:43;14.00;93.80
36450;DHT22;22475;51.390;7.180;2024-02-04T02:35:11;14.00;94.00
36450;DHT22;22475;51.390;7.180;2024-02-04T02:37:43;13.90;94.00
36450;DHT22;22475;51.390;7.180;2024-02-04T02:40:19;13.90;94.50
36450;DHT22;22475;51.390;7.180;2024-02-04T02:42:49;13.90;94.10
36450;DHT22;22475;51.390;7.180;2024-02-04T02:45:19;13.90;94.30
36450;DHT22;22475;51.390;7.180;2024-02-04T02:47:46;13.80;94.40
36450;DHT22;22475;51.390;7.180;2024-02-04T02:50:14;13.90;94.40
36450;DHT22;22475;51.390;7.180;2024-02-04T02:52:41;13.90;94.30
36450;DHT22;22475;51.390;7.180;2024-02-04T02:55:08;13.90;94.60
36450;DHT22;22475;51.390;7.180;2024-02-04T02:57:36;13.80;94.80
36450;DHT22;22475;51.390;7.180;2024-02-04T03:00:03;13.80;94.80
36450;DHT22;22475;51.390;7.180;2024-02-04T03:02:31;13.80;94.80
36450;DHT22;22475;51.390;7.180;2024-02-04T03:04:58;13.80;94.60
36450;DHT22;22475;51.390;7.180;2024-02-04T03:07:24;13.80;94.70
36450;DHT22;22475;51.390;7.180;2024-02-04T03:09:53;13.80;94.70
36450;DHT22;22475;51.390;7.180;2024-02-04T03:12:20;13.80;94.90
36450;DHT22;22475;51.390;7.180;2024-02-04T03:14:48;13.80;95.00
36450;DHT22;22475;51.390;7.180;2024-02-04T03:17:15;13.80;94.70
36450;DHT22;22475;51.390;7.180;2024-02-04T03:19:46;13.80;94.70
36450;DHT22;22475;51.390;7.180;2024-02-04T03:22:13;13.90;94.50
36450;DHT22;22475;51.390;7.180;2024-02-04T03:24:40;13.90;94.50
36450;DHT22;22475;51.390;7.180;2024-02-04T03:27:07;13.90;94.60
36450;DHT22;22475;51.390;7.180;2024-02-04T03:29:33;13.80;94.80
36450;DHT22;22475;51.390;7.180;2024-02-04T03:32:02;13.80;95.00
36450;DHT22;22475;51.390;7.180;2024-02-04T03:34:29;13.80;94.80
36450;DHT22;22475;51.390;7.180;2024-02-04T03:36:55;13.90;94.60
36450;DHT22;22475;51.390;7.180;2024-02-04T03:39:22;13.90;94.50
36450;DHT22;22475;51.390;7.180;2024-02-04T03:41:49;13.90;94.40
36450;DHT22;22475;51.390;7.180;2024-02-04T03:44:15;14.00;94.20
36450;DHT22;22475;51.390;7.180;2024-02-04T03:46:42;13.90;94.20
36450;DHT22;22475;51.390;7.180;2024-02-04T03:49:10;13.90;94.30
36450;DHT22;22475;51.390;7.180;2024-02-04T03:51:37;13.90;94.40
36450;DHT22;22475;51.390;7.180;2024-02-04T03:54:04;13.90;94.50
36450;DHT22;22475;51.390;7.180;2024-02-04T03:56:30;13.90;94.40
36450;DHT22;22475;51.390;7.180;2024-02-04T03:58:57;13.90;94.30
36450;DHT22;22475;51.390;7.180;2024-02-04T04:01:24;13.90;94.40
36450;DHT22;22475;51.390;7.180;2024-02-04T04:03:51;13.90;94.30
36450;DHT22;22475;51.390;7.180;2024-02-04T04:06:19;13.90;94.40
36450;DHT22;22475;51.390;7.180;2024-02-04T04:08:46;13.90;94.40
36450;DHT22;22475;51.390;7.180;2024-02-04T04:11:12;13.90;94.50
36450;DHT22;22475;51.390;7.180;2024-02-04T04:13:39;13.90;94.40
36450;DHT22;22475;51.390;7.180;2024-02-04T04:16:06;13.90;94.20
36450;DHT22;22475;51.390;7.180;2024-02-04T04:18:33;13.90;94.10
36450;DHT22;22475;51.390;7.180;2024-02-04T04:21:00;13.90;94.20
36450;DHT22;22475;51.390;7.180;2024-02-04T04:23:28;13.90;94.20
36450;DHT22;22475;51.390;7.180;2024-02-04T04:25:55;14.00;94.10
36450;DHT22;22475;51.390;7.180;2024-02-04T04:28:22;13.90;94.10
36450;DHT22;22475;51.390;7.180;2024-02-04T04:30:49;13.90;94.10
36450;DHT22;22475;51.390;7.180;2024-02-04T04:33:15;13.90;94.20
36450;DHT22;22475;51.390;7.180;2024-02-04T04:35:42;13.90;94.20
36450;DHT22;22475;51.390;7.180;2024-02-04T04:38:09;13.90;94.30
36450;DHT22;22475;51.390;7.180;2024-02-04T04:40:37;13.90;94.70
36450;DHT22;22475;51.390;7.180;2024-02-04T04:43:05;13.90;94.40
36450;DHT22;22475;51.390;7.180;2024-02-04T04:45:32;13.90;94.20
36450;DHT22;22475;51.390;7.180;2024-02-04T04:47:59;13.90;94.20
36450;DHT22;22475;51.390;7.180;2024-02-04T04:50:27;13.90;94.10
36450;DHT22;22475;51.390;7.180;2024-02-04T04:52:54;13.90;94.20
36450;DHT22;22475;51.390;7.180;2024-02-04T04:55:20;13.90;94.20
36450;DHT22;22475;51.390;7.180;2024-02-04T04:57:49;13.90;94.30
36450;DHT22;22475;51.390;7.180;2024-02-04T05:00:16;13.90;94.40
36450;DHT22;22475;51.390;7.180;2024-02-04T05:02:43;13.80;94.50
36450;DHT22;22475;51.390;7.180;2024-02-04T05:05:10;13.90;94.40
36450;DHT22;22475;51.390;7.180;2024-02-04T05:07:37;13.90;94.20
36450;DHT22;22475;51.390;7.180;2024-02-04T05:10:05;13.90;94.20
36450;DHT22;22475;51.390;7.180;2024-02-04T05:12:32;13.90;94.50
36450;DHT22;22475;51.390;7.180;2024-02-04T05:15:00;13.90;94.10
36450;DHT22;22475;51.390;7.180;2024-02-04T05:17:27;13.90;94.10
36450;DHT22;22475;51.390;7.180;2024-02-04T05:19:54;13.90;94.10
36450;DHT22;22475;51.390;7.180;2024-02-04T05:22:21;13.90;94.00
36450;DHT22;22475;51.390;7.180;2024-02-04T05:24:48;13.90;94.20
36450;DHT22;22475;51.390;7.180;2024-02-04T05:27:14;13.90;94.20
36450;DHT22;22475;51.390;7.180;2024-02-04T05:29:41;13.90;94.20
36450;DHT22;22475;51.390;7.180;2024-02-04T05:32:09;13.90;94.20
36450;DHT22;22475;51.390;7.180;2024-02-04T05:34:37;13.90;94.20
36450;DHT22;22475;51.390;7.180;2024-02-04T05:37:03;13.90;94.20
36450;DHT22;22475;51.390;7.180;2024-02-04T05:39:30;13.90;94.00
36450;DHT22;22475;51.390;7.180;2024-02-04T05:41:57;13.90;94.10
36450;DHT22;22475;51.390;7.180;2024-02-04T05:44:24;13.90;94.20
36450;DHT22;22475;51.390;7.180;2024-02-04T05:46:50;14.00;94.00
36450;DHT22;22475;51.390;7.180;2024-02-04T05:49:18;13.90;94.10
36450;DHT22;22475;51.390;7.180;2024-02-04T05:51:45;13.90;94.20
36450;DHT22;22475;51.390;7.180;2024-02-04T05:54:13;13.90;94.10
36450;DHT22;22475;51.390;7.180;2024-02-04T05:56:39;13.90;94.00
36450;DHT22;22475;51.390;7.180;2024-02-04T05:59:06;13.90;94.10
36450;DHT22;22475;51.390;7.180;2024-02-04T06:01:33;13.90;94.00
36450;DHT22;22475;51.390;7.180;2024-02-04T06:03:59;14.00;94.10
36450;DHT22;22475;51.390;7.180;2024-02-04T06:06:28;14.00;94.00
36450;DHT22;22475;51.390;7.180;2024-02-04T06:08:54;14.00;94.00
36450;DHT22;22475;51.390;7.180;2024-02-04T06:11:21;14.00;94.00
36450;DHT22;22475;51.390;7.180;2024-02-04T06:13:48;14.00;94.00
36450;DHT22;22475;51.390;7.180;2024-02-04T06:16:15;14.10;93.80
36450;DHT22;22475;51.390;7.180;2024-02-04T06:18:42;14.00;93.70
36450;DHT22;22475;51.390;7.180;2024-02-04T06:21:09;14.00;93.80
36450;DHT22;22475;51.390;7.180;2024-02-04T06:23:38;14.00;93.90
36450;DHT22;22475;51.390;7.180;2024-02-04T06:26:05;14.00;93.90
36450;DHT22;22475;51.390;7.180;2024-02-04T06:28:32;14.00;94.00
36450;DHT22;22475;51.390;7.180;2024-02-04T06:30:58;14.00;94.00
36450;DHT22;22475;51.390;7.180;2024-02-04T06:33:25;14.00;94.10
36450;DHT22;22475;51.390;7.180;2024-02-04T06:35:52;13.90;94.10
36450;DHT22;22475;51.390;7.180;2024-02-04T06:38:19;14.00;94.00
36450;DHT22;22475;51.390;7.180;2024-02-04T06:40:47;14.00;93.80
36450;DHT22;22475;51.390;7.180;2024-02-04T06:43:13;14.10;93.70
36450;DHT22;22475;51.390;7.180;2024-02-04T06:45:40;14.10;93.80
36450;DHT22;22475;51.390;7.180;2024-02-04T06:48:07;14.00;93.80
36450;DHT22;22475;51.390;7.180;2024-02-04T06:50:35;14.00;93.80
36450;DHT22;22475;51.390;7.180;2024-02-04T06:53:02;14.00;93.80
36450;DHT22;22475;51.390;7.180;2024-02-04T06:55:29;14.00;93.90
36450;DHT22;22475;51.390;7.180;2024-02-04T06:57:57;14.10;94.20
36450;DHT22;22475;51.390;7.180;2024-02-04T07:00:24;14.00;93.80
36450;DHT22;22475;51.390;7.180;2024-02-04T07:02:50;14.10;93.80
36450;DHT22;22475;51.390;7.180;2024-02-04T07:05:17;14.10;93.80
36450;DHT22;22475;51.390;7.180;2024-02-04T07:07:44;14.10;93.90
36450;DHT22;22475;51.390;7.180;2024-02-04T07:10:11;14.10;93.90
36450;DHT22;22475;51.390;7.180;2024-02-04T07:12:37;14.10;93.90
36450;DHT22;22475;51.390;7.180;2024-02-04T07:15:06;14.10;93.80
36450;DHT22;22475;51.390;7.180;2024-02-04T07:17:33;14.10;93.90
36450;DHT22;22475;51.390;7.180;2024-02-04T07:20:00;14.10;93.80
36450;DHT22;22475;51.390;7.180;2024-02-04T07:22:28;14.00;93.90
36450;DHT22;22475;51.390;7.180;2024-02-04T07:24:55;14.00;93.90
36450;DHT22;22475;51.390;7.180;2024-02-04T07:27:21;14.00;94.00
36450;DHT22;22475;51.390;7.180;2024-02-04T07:29:48;14.00;93.90
36450;DHT22;22475;51.390;7.180;2024-02-04T07:32:16;14.00;93.90
36450;DHT22;22475;51.390;7.180;2024-02-04T07:34:43;14.00;94.00
36450;DHT22;22475;51.390;7.180;2024-02-04T07:37:10;14.00;94.00
36450;DHT22;22475;51.390;7.180;2024-02-04T07:39:37;14.00;94.10
36450;DHT22;22475;51.390;7.180;2024-02-04T07:42:04;14.00;94.10
36450;DHT22;22475;51.390;7.180;2024-02-04T07:44:31;14.00;94.30
36450;DHT22;22475;51.390;7.180;2024-02-04T07:46:57;13.90;94.20
36450;DHT22;22475;51.390;7.180;2024-02-04T07:49:25;14.00;94.10
36450;DHT22;22475;51.390;7.180;2024-02-04T07:51:52;14.00;94.00
36450;DHT22;22475;51.390;7.180;2024-02-04T07:54:19;14.00;93.90
36450;DHT22;22475;51.390;7.180;2024-02-04T07:56:46;14.00;94.10
36450;DHT22;22475;51.390;7.180;2024-02-04T07:59:13;14.00;94.20
36450;DHT22;22475;51.390;7.180;2024-02-04T08:01:40;14.00;94.20
36450;DHT22;22475;51.390;7.180;2024-02-04T08:04:07;14.00;94.20
36450;DHT22;22475;51.390;7.180;2024-02-04T08:06:37;13.90;94.40
36450;DHT22;22475;51.390;7.180;2024-02-04T08:09:04;14.00;94.40
36450;DHT22;22475;51.390;7.180;2024-02-04T08:11:32;14.00;94.20
36450;DHT22;22475;51.390;7.180;2024-02-04T08:13:58;14.00;94.30
36450;DHT22;22475;51.390;7.180;2024-02-04T08:16:25;13.90;94.40
36450;DHT22;22475;51.390;7.180;2024-02-04T08:18:52;13.90;94.40
36450;DHT22;22475;51.390;7.180;2024-02-04T08:21:19;13.90;94.40
36450;DHT22;22475;51.390;7.180;2024-02-04T08:23:47;13.90;94.30
36450;DHT22;22475;51.390;7.180;2024-02-04T08:26:14;13.90;94.50
36450;DHT22;22475;51.390;7.180;2024-02-04T08:28:41;13.90;94.40
36450;DHT22;22475;51.390;7.180;2024-02-04T08:31:07;13.90;94.50
36450;DHT22;22475;51.390;7.180;2024-02-04T08:33:34;13.90;94.70
36450;DHT22;22475;51.390;7.180;2024-02-04T08:36:01;13.80;94.80
36450;DHT22;22475;51.390;7.180;2024-02-04T08:38:28;13.80;94.90
36450;DHT22;22475;51.390;7.180;2024-02-04T08:40:56;13.80;95.00
36450;DHT22;22475;51.390;7.180;2024-02-04T08:43:22;13.80;94.90
36450;DHT22;22475;51.390;7.180;2024-02-04T08:45:49;13.80;94.70
36450;DHT22;22475;51.390;7.180;2024-02-04T08:48:16;13.90;94.70
36450;DHT22;22475;51.390;7.180;2024-02-04T08:50:43;13.90;95.10
36450;DHT22;22475;51.390;7.180;2024-02-04T08:53:09;13.90;94.70
36450;DHT22;22475;51.390;7.180;2024-02-04T08:55:36;14.00;94.40
36450;DHT22;22475;51.390;7.180;2024-02-04T08:58:04;14.00;94.40
36450;DHT22;22475;51.390;7.180;2024-02-04T09:00:31;13.90;94.60
36450;DHT22;22475;51.390;7.180;2024-02-04T09:02:58;13.90;94.90
36450;DHT22;22475;51.390;7.180;2024-02-04T09:05:24;13.90;95.00
36450;DHT22;22475;51.390;7.180;2024-02-04T09:07:51;13.90;95.00
36450;DHT22;22475;51.390;7.180;2024-02-04T09:10:20;13.90;95.00
36450;DHT22;22475;51.390;7.180;2024-02-04T09:12:47;13.90;94.70
36450;DHT22;22475;51.390;7.180;2024-02-04T09:15:15;13.90;94.70
36450;DHT22;22475;51.390;7.180;2024-02-04T09:17:42;14.00;94.70
36450;DHT22;22475;51.390;7.180;2024-02-04T09:20:10;14.00;94.40
36450;DHT22;22475;51.390;7.180;2024-02-04T09:22:37;14.00;94.20
36450;DHT22;22475;51.390;7.180;2024-02-04T09:25:05;14.00;94.20
36450;DHT22;22475;51.390;7.180;2024-02-04T09:27:32;14.10;94.20
36450;DHT22;22475;51.390;7.180;2024-02-04T09:29:59;14.00;94.30
36450;DHT22;22475;51.390;7.180;2024-02-04T09:32:27;14.00;94.20
36450;DHT22;22475;51.390;7.180;2024-02-04T09:34:53;14.00;94.30
36450;DHT22;22475;51.390;7.180;2024-02-04T09:37:20;14.00;94.30
36450;DHT22;22475;51.390;7.180;2024-02-04T09:39:47;14.00;94.20
36450;DHT22;22475;51.390;7.180;2024-02-04T09:42:19;14.00;94.30
36450;DHT22;22475;51.390;7.180;2024-02-04T09:44:47;14.10;94.30
36450;DHT22;22475;51.390;7.180;2024-02-04T09:47:15;14.10;94.20
36450;DHT22;22475;51.390;7.180;2024-02-04T09:49:44;14.00;94.20
36450;DHT22;22475;51.390;7.180;2024-02-04T09:52:13;14.00;94.30
36450;DHT22;22475;51.390;7.180;2024-02-04T09:54:45;14.00;94.20
36450;DHT22;22475;51.390;7.180;2024-02-04T09:57:13;14.10;94.10
36450;DHT22;22475;51.390;7.180;2024-02-04T09:59:40;14.10;94.10
36450;DHT22;22475;51.390;7.180;2024-02-04T10:02:08;14.10;94.00
36450;DHT22;22475;51.390;7.180;2024-02-04T10:04:36;14.10;94.00
36450;DHT22;22475;51.390;7.180;2024-02-04T10:07:04;14.10;94.20
36450;DHT22;22475;51.390;7.180;2024-02-04T10:09:31;14.00;94.30
36450;DHT22;22475;51.390;7.180;2024-02-04T10:11:59;14.10;94.30
36450;DHT22;22475;51.390;7.180;2024-02-04T10:14:26;14.10;94.10
36450;DHT22;22475;51.390;7.180;2024-02-04T10:16:53;14.10;94.00
36450;DHT22;22475;51.390;7.180;2024-02-04T10:19:20;14.10;94.10
36450;DHT22;22475;51.390;7.180;2024-02-04T10:21:58;14.10;94.20
36450;DHT22;22475;51.390;7.180;2024-02-04T10:24:26;14.10;94.20
36450;DHT22;22475;51.390;7.180;2024-02-04T10:26:54;14.10;94.10
36450;DHT22;22475;51.390;7.180;2024-02-04T10:29:22;14.10;94.10
36450;DHT22;22475;51.390;7.180;2024-02-04T10:31:52;14.10;94.30
36450;DHT22;22475;51.390;7.180;2024-02-04T10:34:19;14.10;94.20
36450;DHT22;22475;51.390;7.180;2024-02-04T10:36:46;14.10;94.30
36450;DHT22;22475;51.390;7.180;2024-02-04T10:39:13;14.10;94.20
36450;DHT22;22475;51.390;7.180;2024-02-04T10:41:48;14.10;94.20
36450;DHT22;22475;51.390;7.180;2024-02-04T10:44:16;14.10;94.20
36450;DHT22;22475;51.390;7.180;2024-02-04T10:46:46;14.10;94.20
36450;DHT22;22475;51.390;7.180;2024-02-04T10:49:14;14.00;94.40
36450;DHT22;22475;51.390;7.180;2024-02-04T10:51:42;14.00;94.60
36450;DHT22;22475;51.390;7.180;2024-02-04T10:54:09;14.00;94.70
36450;DHT22;22475;51.390;7.180;2024-02-04T10:56:41;14.00;94.80
36450;DHT22;22475;51.390;7.180;2024-02-04T10:59:10;14.00;94.70
36450;DHT22;22475;51.390;7.180;2024-02-04T11:01:38;14.00;94.90
36450;DHT22;22475;51.390;7.180;2024-02-04T11:04:05;14.00;94.70
36450;DHT22;22475;51.390;7.180;2024-02-04T11:06:33;14.10;94.60
36450;DHT22;22475;51.390;7.180;2024-02-04T11:09:01;14.10;94.60
36450;DHT22;22475;51.390;7.180;2024-02-04T11:11:29;14.10;94.50
36450;DHT22;22475;51.390;7.180;2024-02-04T11:14:00;14.10;94.50
36450;DHT22;22475;51.390;7.180;2024-02-04T11:16:35;14.10;94.40
36450;DHT22;22475;51.390;7.180;2024-02-04T11:19:19;14.20;94.30
36450;DHT22;22475;51.390;7.180;2024-02-04T11:22:05;14.10;94.60
36450;DHT22;22475;51.390;7.180;2024-02-04T11:24:51;14.10;94.50
36450;DHT22;22475;51.390;7.180;2024-02-04T11:27:20;14.10;94.50
36450;DHT22;22475;51.390;7.180;2024-02-04T11:29:49;14.10;94.40
36450;DHT22;22475;51.390;7.180;2024-02-04T11:32:17;14.10;94.50
36450;DHT22;22475;51.390;7.180;2024-02-04T11:34:44;14.10;94.50
36450;DHT22;22475;51.390;7.180;2024-02-04T11:37:15;14.20;94.40
36450;DHT22;22475;51.390;7.180;2024-02-04T11:39:48;14.10;94.50
36450;DHT22;22475;51.390;7.180;2024-02-04T11:42:16;14.20;94.60
36450;DHT22;22475;51.390;7.180;2024-02-04T11:44:43;14.10;94.40
36450;DHT22;22475;51.390;7.180;2024-02-04T11:47:22;14.10;94.50
36450;DHT22;22475;51.390;7.180;2024-02-04T11:49:54;14.10;94.70
36450;DHT22;22475;51.390;7.180;2024-02-04T11:52:20;14.10;94.90
36450;DHT22;22475;51.390;7.180;2024-02-04T11:54:47;14.00;95.00
36450;DHT22;22475;51.390;7.180;2024-02-04T11:57:14;14.10;95.00
36450;DHT22;22475;51.390;7.180;2024-02-04T11:59:42;14.10;94.70
36450;DHT22;22475;51.390;7.180;2024-02-04T12:02:12;14.10;94.60
36450;DHT22;22475;51.390;7.180;2024-02-04T12:04:39;14.20;94.50
36450;DHT22;22475;51.390;7.180;2024-02-04T12:07:07;14.20;94.60
36450;DHT22;22475;51.390;7.180;2024-02-04T12:09:35;14.20;94.60
36450;DHT22;22475;51.390;7.180;2024-02-04T12:12:02;14.20;94.70
36450;DHT22;22475;51.390;7.180;2024-02-04T12:14:30;14.20;94.40
36450;DHT22;22475;51.390;7.180;2024-02-04T12:16:57;14.20;94.20
36450;DHT22;22475;51.390;7.180;2024-02-04T12:19:26;14.20;94.60
36450;DHT22;22475;51.390;7.180;2024-02-04T12:21:53;14.20;94.40
36450;DHT22;22475;51.390;7.180;2024-02-04T12:24:21;14.20;94.40
36450;DHT22;22475;51.390;7.180;2024-02-04T12:26:48;14.20;94.50
36450;DHT22;22475;51.390;7.180;2024-02-04T12:29:14;14.10;94.70
36450;DHT22;22475;51.390;7.180;2024-02-04T12:31:41;14.10;94.80
36450;DHT22;22475;51.390;7.180;2024-02-04T12:34:08;14.10;94.80
36450;DHT22;22475;51.390;7.180;2024-02-04T12:36:39;14.10;94.80
36450;DHT22;22475;51.390;7.180;2024-02-04T12:39:05;14.10;94.50
36450;DHT22;22475;51.390;7.180;2024-02-04T12:41:35;14.20;94.50
36450;DHT22;22475;51.390;7.180;2024-02-04T12:44:02;14.20;94.50
36450;DHT22;22475;51.390;7.180;2024-02-04T12:46:30;14.10;94.60
36450;DHT22;22475;51.390;7.180;2024-02-04T12:48:58;14.10;94.80
36450;DHT22;22475;51.390;7.180;2024-02-04T12:51:25;14.10;94.90
36450;DHT22;22475;51.390;7.180;2024-02-04T12:54:05;14.10;94.70
36450;DHT22;22475;51.390;7.180;2024-02-04T12:56:45;14.10;94.70
36450;DHT22;22475;51.390;7.180;2024-02-04T12:59:24;14.20;94.60
36450;DHT22;22475;51.390;7.180;2024-02-04T13:01:54;14.20;94.60
36450;DHT22;22475;51.390;7.180;2024-02-04T13:04:21;14.20;94.60
36450;DHT22;22475;51.390;7.180;2024-02-04T13:06:48;14.10;94.80
36450;DHT22;22475;51.390;7.180;2024-02-04T13:09:16;14.10;95.00
36450;DHT22;22475;51.390;7.180;2024-02-04T13:11:43;14.10;95.00
36450;DHT22;22475;51.390;7.180;2024-02-04T13:14:10;14.10;94.80
36450;DHT22;22475;51.390;7.180;2024-02-04T13:16:37;14.10;95.00
36450;DHT22;22475;51.390;7.180;2024-02-04T13:19:04;14.10;95.10
36450;DHT22;22475;51.390;7.180;2024-02-04T13:21:32;14.10;95.10
36450;DHT22;22475;51.390;7.180;2024-02-04T13:23:59;14.10;95.10
36450;DHT22;22475;51.390;7.180;2024-02-04T13:26:27;14.00;95.20
36450;DHT22;22475;51.390;7.180;2024-02-04T13:28:54;14.10;95.20
36450;DHT22;22475;51.390;7.180;2024-02-04T13:31:20;14.10;95.20
36450;DHT22;22475;51.390;7.180;2024-02-04T13:33:47;14.10;95.10
36450;DHT22;22475;51.390;7.180;2024-02-04T13:36:14;14.10;95.20
36450;DHT22;22475;51.390;7.180;2024-02-04T13:38:41;14.10;95.10
36450;DHT22;22475;51.390;7.180;2024-02-04T13:41:08;14.10;95.20
36450;DHT22;22475;51.390;7.180;2024-02-04T13:43:36;14.10;95.10
36450;DHT22;22475;51.390;7.180;2024-02-04T13:46:03;14.10;95.20
36450;DHT22;22475;51.390;7.180;2024-02-04T13:48:30;14.10;94.80
36450;DHT22;22475;51.390;7.180;2024-02-04T13:50:56;14.20;94.80
36450;DHT22;22475;51.390;7.180;2024-02-04T13:53:23;14.20;94.50
36450;DHT22;22475;51.390;7.180;2024-02-04T13:55:50;14.20;94.50
36450;DHT22;22475;51.390;7.180;2024-02-04T13:58:17;14.20;94.40
36450;DHT22;22475;51.390;7.180;2024-02-04T14:00:46;14.20;94.40
36450;DHT22;22475;51.390;7.180;2024-02-04T14:03:13;14.10;94.70
36450;DHT22;22475;51.390;7.180;2024-02-04T14:05:40;14.20;94.80
36450;DHT22;22475;51.390;7.180;2024-02-04T14:08:07;14.20;94.90
36450;DHT22;22475;51.390;7.180;2024-02-04T14:10:34;14.20;94.70
36450;DHT22;22475;51.390;7.180;2024-02-04T14:13:02;14.20;94.50
36450;DHT22;22475;51.390;7.180;2024-02-04T14:15:29;14.30;94.40
36450;DHT22;22475;51.390;7.180;2024-02-04T14:17:59;14.30;94.40
36450;DHT22;22475;51.390;7.180;2024-02-04T14:20:25;14.20;94.40
36450;DHT22;22475;51.390;7.180;2024-02-04T14:22:52;14.20;94.70
36450;DHT22;22475;51.390;7.180;2024-02-04T14:25:19;14.10;95.10
36450;DHT22;22475;51.390;7.180;2024-02-04T14:27:46;14.20;95.10
36450;DHT22;22475;51.390;7.180;2024-02-04T14:30:13;14.20;94.80
36450;DHT22;22475;51.390;7.180;2024-02-04T14:32:39;14.20;94.60
36450;DHT22;22475;51.390;7.180;2024-02-04T14:35:08;14.20;94.80
36450;DHT22;22475;51.390;7.180;2024-02-04T14:37:35;14.10;94.90
36450;DHT22;22475;51.390;7.180;2024-02-04T14:40:03;14.10;94.90
36450;DHT22;22475;51.390;7.180;2024-02-04T14:42:31;14.20;94.80
36450;DHT22;22475;51.390;7.180;2024-02-04T14:44:58;14.20;94.60
36450;DHT22;22475;51.390;7.180;2024-02-04T14:47:26;14.20;94.90
36450;DHT22;22475;51.390;7.180;2024-02-04T14:49:53;14.20;94.70
36450;DHT22;22475;51.390;7.180;2024-02-04T14:52:21;14.20;94.60
36450;DHT22;22475;51.390;7.180;2024-02-04T14:54:48;14.20;94.60
36450;DHT22;22475;51.390;7.180;2024-02-04T14:57:14;14.20;94.50
36450;DHT22;22475;51.390;7.180;2024-02-04T14:59:42;14.20;94.50
36450;DHT22;22475;51.390;7.180;2024-02-04T15:02:10;14.20;94.50
36450;DHT22;22475;51.390;7.180;2024-02-04T15:04:37;14.30;94.40
36450;DHT22;22475;51.390;7.180;2024-02-04T15:07:04;14.30;94.30
36450;DHT22;22475;51.390;7.180;2024-02-04T15:09:34;14.30;94.20
36450;DHT22;22475;51.390;7.180;2024-02-04T15:12:01;14.20;94.60
36450;DHT22;22475;51.390;7.180;2024-02-04T15:14:28;14.20;94.90
36450;DHT22;22475;51.390;7.180;2024-02-04T15:16:56;14.10;95.10
36450;DHT22;22475;51.390;7.180;2024-02-04T15:19:24;14.10;95.30
36450;DHT22;22475;51.390;7.180;2024-02-04T15:21:52;14.10;95.20
36450;DHT22;22475;51.390;7.180;2024-02-04T15:24:19;14.20;95.00
36450;DHT22;22475;51.390;7.180;2024-02-04T15:26:48;14.20;94.80
36450;DHT22;22475;51.390;7.180;2024-02-04T15:29:15;14.20;94.70
36450;DHT22;22475;51.390;7.180;2024-02-04T15:31:43;14.20;94.70
36450;DHT22;22475;51.390;7.180;2024-02-04T15:34:12;14.10;94.50